Time;durP1;ratioP1;P1;durP2;ratioP2;P2;SDS_P1;SDS_P2;PMS_P1;PMS_P2;Temp;Humidity;BMP_temperature;BMP_pressure;BME280_temperature;BME280_humidity;BME280_pressure;Samples;Min_cycle;Max_cycle;Signal;HPM_P1;HPM_P2
2022/09/07 00:00:34;;;;;;;13.75;2.13;;;16.70;99.90;;;;;;5007999;28;20026;-52
2022/09/07 00:03:00;;;;;;;10.57;1.98;;;16.60;99.90;;;;;;5008257;28;20112;-53
2022/09/07 00:05:27;;;;;;;9.32;1.90;;;16.60;99.90;;;;;;5009675;28;20064;-48
2022/09/07 00:07:53;;;;;;;5.30;1.33;;;16.70;99.90;;;;;;5009111;28;20061;-47
2022/09/07 00:10:19;;;;;;;7.53;1.73;;;16.70;99.90;;;;;;5014164;28;20119;-47
2022/09/07 00:12:44;;;;;;;10.65;1.85;;;16.70;99.90;;;;;;5015265;28;20398;-50
2022/09/07 00:15:11;;;;;;;13.40;1.92;;;16.70;99.90;;;;;;5014551;28;20022;-45
2022/09/07 00:17:37;;;;;;;12.05;2.15;;;16.70;99.90;;;;;;5016260;28;20104;-48
2022/09/07 00:20:06;;;;;;;13.15;2.08;;;16.70;99.90;;;;;;5016254;28;20026;-45
2022/09/07 00:22:32;;;;;;;14.35;1.95;;;16.70;99.90;;;;;;5011904;28;20049;-52
2022/09/07 00:24:57;;;;;;;13.60;1.88;;;16.70;99.90;;;;;;5013348;28;20057;-46
2022/09/07 00:27:23;;;;;;;14.32;2.20;;;16.70;99.90;;;;;;4996928;28;20378;-46
2022/09/07 00:29:49;;;;;;;13.05;2.33;;;16.70;99.90;;;;;;5002413;28;20106;-48
2022/09/07 00:32:14;;;;;;;11.23;2.58;;;16.70;99.90;;;;;;5004130;28;20041;-47
2022/09/07 00:34:41;;;;;;;10.40;2.00;;;16.70;99.90;;;;;;4997165;28;20022;-45
2022/09/07 00:37:07;;;;;;;11.60;2.00;;;16.70;99.90;;;;;;4997583;28;20054;-47
2022/09/07 00:39:33;;;;;;;10.50;2.13;;;16.70;99.90;;;;;;4999916;28;20025;-50
2022/09/07 00:42:00;;;;;;;14.25;2.67;;;16.70;99.90;;;;;;4997364;28;20137;-51
2022/09/07 00:45:04;;;;;;;12.23;2.03;;;16.70;99.90;;;;;;4997599;28;20046;-48
2022/09/07 00:47:48;;;;;;;13.02;2.60;;;16.70;99.90;;;;;;5012171;28;20024;-56
2022/09/07 00:50:36;;;;;;;13.98;2.08;;;16.60;99.90;;;;;;5017200;28;20120;-48
2022/09/07 00:53:16;;;;;;;10.18;2.20;;;16.60;99.90;;;;;;5016710;28;20053;-49
2022/09/07 00:55:43;;;;;;;10.82;1.90;;;16.70;99.90;;;;;;5017372;28;20030;-45
2022/09/07 00:58:10;;;;;;;12.32;2.88;;;16.70;99.90;;;;;;5017070;28;20080;-49
2022/09/07 01:00:38;;;;;;;11.60;2.30;;;16.70;99.90;;;;;;5017216;28;20042;-54
2022/09/07 01:03:04;;;;;;;14.68;2.10;;;16.70;99.90;;;;;;5016960;28;20539;-52
2022/09/07 01:05:42;;;;;;;9.73;2.05;;;16.80;99.90;;;;;;5017108;28;20026;-54
2022/09/07 01:08:10;;;;;;;11.82;2.13;;;16.80;99.90;;;;;;5014749;28;20153;-56
2022/09/07 01:10:37;;;;;;;15.02;2.70;;;16.90;99.90;;;;;;5017203;28;20041;-56
2022/09/07 01:13:03;;;;;;;15.32;2.90;;;16.90;99.90;;;;;;5017003;28;20483;-57
2022/09/07 01:15:55;;;;;;;13.00;2.50;;;16.90;99.90;;;;;;5017007;28;20485;-50
2022/09/07 01:18:39;;;;;;;11.10;2.33;;;17.00;99.90;;;;;;4990187;28;20500;-46
2022/09/07 01:21:27;;;;;;;16.75;2.60;;;17.00;99.90;;;;;;5012855;28;20040;-46
2022/09/07 01:24:15;;;;;;;14.20;2.50;;;17.00;99.90;;;;;;5000604;28;20129;-45
2022/09/07 01:27:11;;;;;;;13.10;3.22;;;17.00;99.90;;;;;;5013559;28;20473;-47
2022/09/07 01:29:55;;;;;;;15.48;2.65;;;16.90;99.90;;;;;;5013709;28;20493;-49
2022/09/07 01:33:03;;;;;;;13.23;2.42;;;16.90;99.90;;;;;;5013810;28;20041;-54
2022/09/07 01:35:49;;;;;;;12.60;2.42;;;16.90;99.90;;;;;;5013734;28;20026;-45
2022/09/07 01:38:23;;;;;;;11.63;2.47;;;16.90;99.90;;;;;;4995912;28;20029;-51
2022/09/07 01:40:59;;;;;;;10.88;2.55;;;17.00;99.90;;;;;;5013594;28;20033;-53
2022/09/07 01:43:39;;;;;;;15.63;2.60;;;17.00;99.90;;;;;;5013611;28;20033;-50
2022/09/07 01:46:27;;;;;;;11.55;2.60;;;17.00;99.90;;;;;;4999587;28;20029;-50
2022/09/07 01:48:56;;;;;;;12.13;2.40;;;17.00;99.90;;;;;;5013316;28;20038;-51
2022/09/07 01:51:28;;;;;;;13.23;2.47;;;17.10;99.90;;;;;;5012927;28;20389;-47
2022/09/07 01:53:57;;;;;;;13.48;2.90;;;17.10;99.90;;;;;;5013328;28;20081;-45
2022/09/07 01:56:32;;;;;;;15.73;2.65;;;17.10;99.90;;;;;;5013145;28;20022;-47
2022/09/07 01:59:04;;;;;;;20.67;2.95;;;17.10;99.90;;;;;;5013265;28;20038;-52
2022/09/07 02:01:40;;;;;;;12.70;2.63;;;17.20;99.90;;;;;;5012987;28;20465;-52
2022/09/07 02:04:26;;;;;;;14.82;2.65;;;17.20;99.90;;;;;;5013055;28;20018;-51
2022/09/07 02:06:51;;;;;;;12.57;2.75;;;17.20;99.90;;;;;;5013002;28;20053;-48
2022/09/07 02:09:30;;;;;;;13.43;2.42;;;17.20;99.90;;;;;;5012869;28;20468;-48
2022/09/07 02:12:01;;;;;;;16.70;2.78;;;17.20;99.90;;;;;;5012888;28;20049;-44
2022/09/07 02:14:36;;;;;;;14.40;2.60;;;17.20;99.90;;;;;;5013121;28;20084;-51
2022/09/07 02:17:12;;;;;;;14.23;3.25;;;17.20;99.90;;;;;;5013074;28;20052;-46
2022/09/07 02:19:45;;;;;;;17.67;3.00;;;17.20;99.90;;;;;;5012803;28;20014;-48
2022/09/07 02:22:16;;;;;;;18.27;2.92;;;17.20;99.90;;;;;;4998802;28;20026;-46
2022/09/07 02:24:49;;;;;;;17.23;2.60;;;17.20;99.90;;;;;;5006160;28;20034;-47
2022/09/07 02:27:23;;;;;;;13.90;2.70;;;17.20;99.90;;;;;;5012674;28;20034;-48
2022/09/07 02:29:50;;;;;;;17.88;2.55;;;17.20;99.90;;;;;;5012592;28;20080;-53
2022/09/07 02:32:17;;;;;;;18.10;2.60;;;17.20;99.90;;;;;;5012121;28;20041;-47
2022/09/07 02:34:42;;;;;;;14.82;2.80;;;17.10;99.90;;;;;;5012494;28;20034;-49
2022/09/07 02:37:09;;;;;;;16.48;2.67;;;17.10;99.90;;;;;;5012370;28;20018;-49
2022/09/07 02:39:36;;;;;;;16.65;2.92;;;17.10;99.90;;;;;;5012449;28;20370;-50
2022/09/07 02:42:02;;;;;;;17.77;3.10;;;17.60;99.90;;;;;;5012395;28;20034;-44
2022/09/07 02:44:34;;;;;;;13.38;2.78;;;17.10;99.90;;;;;;5004306;28;20038;-46
2022/09/07 02:47:27;;;;;;;19.08;2.33;;;17.20;99.90;;;;;;5003373;28;20495;-46
2022/09/07 02:50:11;;;;;;;13.52;2.55;;;17.10;99.90;;;;;;5012409;28;20034;-46
2022/09/07 02:52:40;;;;;;;16.75;2.65;;;17.10;99.90;;;;;;5011931;28;20046;-51
2022/09/07 02:55:36;;;;;;;18.17;2.90;;;17.10;99.90;;;;;;5012207;28;20040;-46
2022/09/07 02:58:23;;;;;;;12.25;2.45;;;17.10;99.90;;;;;;5010707;28;20021;-47
2022/09/07 03:01:14;;;;;;;21.15;3.25;;;17.10;99.90;;;;;;5010689;28;20025;-49
2022/09/07 03:04:07;;;;;;;16.40;3.17;;;17.10;99.90;;;;;;4966056;28;20464;-48
2022/09/07 03:06:33;;;;;;;20.27;3.38;;;17.10;99.90;;;;;;4992001;28;20029;-54
2022/09/07 03:09:04;;;;;;;15.02;2.70;;;17.20;99.90;;;;;;5009788;28;20041;-46
2022/09/07 03:11:29;;;;;;;15.70;2.65;;;17.20;99.90;;;;;;5011847;28;20038;-50
2022/09/07 03:14:15;;;;;;;22.48;3.55;;;17.20;99.90;;;;;;5007942;28;20019;-44
2022/09/07 03:16:42;;;;;;;23.15;2.85;;;17.30;99.90;;;;;;5004677;28;20029;-47
2022/09/07 03:19:07;;;;;;;14.85;2.45;;;17.20;99.90;;;;;;5011970;28;20153;-47
2022/09/07 03:21:34;;;;;;;14.05;2.70;;;17.30;99.90;;;;;;5011414;28;20078;-49
2022/09/07 03:24:00;;;;;;;15.50;2.95;;;17.30;99.90;;;;;;5011478;28;20034;-52
2022/09/07 03:26:25;;;;;;;13.52;3.08;;;17.30;99.90;;;;;;5011718;28;20488;-47
2022/09/07 03:28:51;;;;;;;17.05;2.90;;;17.30;99.90;;;;;;5011571;28;20057;-45
2022/09/07 03:31:16;;;;;;;13.95;3.58;;;17.40;99.90;;;;;;5005343;28;20033;-48
2022/09/07 03:33:42;;;;;;;14.02;2.78;;;17.40;99.90;;;;;;5004296;28;20037;-46
2022/09/07 03:36:08;;;;;;;15.30;2.72;;;17.30;99.90;;;;;;5011579;28;20021;-45
2022/09/07 03:38:33;;;;;;;14.52;2.83;;;17.30;99.90;;;;;;5011560;28;20563;-47
2022/09/07 03:41:01;;;;;;;12.85;2.38;;;17.30;99.90;;;;;;5011417;28;20040;-51
2022/09/07 03:43:28;;;;;;;13.43;2.70;;;17.30;99.90;;;;;;5010841;28;20022;-54
2022/09/07 03:46:02;;;;;;;20.02;2.85;;;17.30;99.90;;;;;;5011385;28;20477;-50
2022/09/07 03:48:33;;;;;;;18.02;3.10;;;17.30;99.90;;;;;;5011586;28;20053;-51
2022/09/07 03:51:03;;;;;;;11.52;2.25;;;17.30;99.90;;;;;;5011066;28;20030;-48
2022/09/07 03:53:31;;;;;;;11.18;2.08;;;17.10;99.90;;;;;;5011322;28;20493;-48
2022/09/07 03:56:01;;;;;;;7.35;1.42;;;16.80;99.90;;;;;;5011264;28;20428;-45
2022/09/07 03:58:29;;;;;;;7.07;1.65;;;16.50;99.90;;;;;;5011428;28;20018;-50
2022/09/07 04:00:55;;;;;;;7.68;1.40;;;16.20;99.90;;;;;;5011294;28;20397;-44
2022/09/07 04:03:21;;;;;;;8.65;1.48;;;16.10;99.90;;;;;;5011067;28;20026;-48
2022/09/07 04:05:46;;;;;;;7.13;1.35;;;16.00;99.90;;;;;;5001952;28;20029;-46
2022/09/07 04:08:12;;;;;;;10.50;1.30;;;15.90;99.90;;;;;;5006269;28;20089;-50
2022/09/07 04:10:39;;;;;;;8.75;1.45;;;15.80;99.90;;;;;;5011131;28;20026;-49
2022/09/07 04:13:05;;;;;;;8.73;1.58;;;15.80;99.90;;;;;;5011175;28;20034;-44
2022/09/07 04:15:31;;;;;;;10.52;1.70;;;15.70;99.90;;;;;;5010890;28;20358;-48
2022/09/07 04:17:57;;;;;;;9.32;1.90;;;15.70;99.90;;;;;;5011151;28;20057;-48
2022/09/07 04:20:23;;;;;;;12.07;1.73;;;15.70;99.90;;;;;;5010874;28;20096;-44
2022/09/07 04:22:48;;;;;;;10.25;1.52;;;15.60;99.90;;;;;;5010651;28;20383;-45
2022/09/07 04:25:15;;;;;;;9.73;1.75;;;15.60;99.90;;;;;;5010885;28;20045;-46
2022/09/07 04:27:40;;;;;;;6.25;1.50;;;15.60;99.90;;;;;;5010927;28;20381;-48
2022/09/07 04:30:08;;;;;;;10.38;1.35;;;15.60;99.90;;;;;;5010940;28;20033;-48
2022/09/07 04:32:34;;;;;;;10.88;1.70;;;15.50;99.90;;;;;;5010942;28;20045;-47
2022/09/07 04:34:59;;;;;;;6.70;1.38;;;15.50;99.90;;;;;;5010807;28;20017;-48
2022/09/07 04:37:25;;;;;;;12.75;2.53;;;15.60;99.90;;;;;;5010714;28;20370;-45
2022/09/07 04:39:51;;;;;;;12.70;1.95;;;15.50;99.90;;;;;;5011194;28;20304;-45
2022/09/07 04:42:17;;;;;;;13.40;1.70;;;15.50;99.90;;;;;;5010691;28;20095;-45
2022/09/07 04:44:42;;;;;;;12.38;1.70;;;15.50;99.90;;;;;;5010588;28;20046;-47
2022/09/07 04:47:08;;;;;;;7.32;1.50;;;15.50;99.90;;;;;;5010959;28;20144;-49
2022/09/07 04:49:34;;;;;;;7.90;1.42;;;15.50;99.90;;;;;;5010721;28;20034;-51
2022/09/07 04:51:59;;;;;;;9.55;1.50;;;15.50;99.90;;;;;;5010729;28;20393;-49
2022/09/07 04:54:25;;;;;;;10.40;1.95;;;15.50;99.90;;;;;;5012445;28;20088;-45
2022/09/07 04:56:51;;;;;;;11.98;1.88;;;15.50;99.90;;;;;;5014267;28;20022;-51
2022/09/07 04:59:17;;;;;;;12.45;2.10;;;15.50;99.90;;;;;;5014147;28;20485;-45
2022/09/07 05:01:42;;;;;;;9.18;1.65;;;15.50;99.90;;;;;;5014283;28;20040;-47
2022/09/07 05:04:08;;;;;;;12.35;2.28;;;15.50;99.90;;;;;;5014336;28;20080;-46
2022/09/07 05:06:34;;;;;;;15.10;1.88;;;15.40;99.90;;;;;;4999921;28;20057;-54
2022/09/07 05:08:59;;;;;;;10.30;1.90;;;15.40;99.90;;;;;;5014029;28;20464;-53
2022/09/07 05:11:26;;;;;;;17.00;2.50;;;15.40;99.90;;;;;;5014043;28;20037;-48
2022/09/07 05:13:51;;;;;;;13.93;1.88;;;15.40;99.90;;;;;;5013999;28;20109;-49
2022/09/07 05:16:20;;;;;;;12.65;2.33;;;15.40;99.90;;;;;;5013913;28;20104;-48
2022/09/07 05:18:51;;;;;;;17.45;2.17;;;15.40;99.90;;;;;;5013813;28;20022;-46
2022/09/07 05:21:22;;;;;;;11.60;1.90;;;15.30;99.90;;;;;;5013808;28;20472;-45
2022/09/07 05:23:50;;;;;;;8.95;1.73;;;15.30;99.90;;;;;;5014003;28;20084;-45
2022/09/07 05:26:16;;;;;;;15.40;2.42;;;15.30;99.90;;;;;;5013878;28;20030;-49
2022/09/07 05:28:42;;;;;;;13.93;2.10;;;15.30;99.90;;;;;;5013812;28;20030;-45
2022/09/07 05:31:10;;;;;;;10.70;1.77;;;15.30;99.90;;;;;;5013667;28;20028;-47
2022/09/07 05:33:36;;;;;;;13.57;1.90;;;15.20;99.90;;;;;;5013517;28;20124;-48
2022/09/07 05:36:02;;;;;;;11.27;2.15;;;15.20;99.90;;;;;;5013538;28;20101;-48
2022/09/07 05:38:29;;;;;;;13.27;1.90;;;15.10;99.90;;;;;;5013720;28;20049;-50
2022/09/07 05:40:54;;;;;;;13.70;1.80;;;15.20;99.90;;;;;;5013370;28;20029;-51
2022/09/07 05:43:20;;;;;;;11.70;1.90;;;15.30;99.90;;;;;;5013739;28;20026;-50
2022/09/07 05:45:46;;;;;;;11.45;1.85;;;15.20;99.90;;;;;;5013218;28;20034;-48
2022/09/07 05:48:12;;;;;;;8.80;1.70;;;15.20;99.90;;;;;;5013549;28;20018;-53
2022/09/07 05:50:38;;;;;;;7.88;1.85;;;15.20;99.90;;;;;;5013151;28;20034;-46
2022/09/07 05:53:04;;;;;;;9.40;1.60;;;15.20;99.90;;;;;;5013396;28;20045;-51
2022/09/07 05:55:32;;;;;;;11.23;1.80;;;15.20;99.90;;;;;;5000099;28;20022;-46
2022/09/07 05:57:58;;;;;;;9.35;2.17;;;15.10;99.90;;;;;;5013145;28;20491;-45
2022/09/07 06:00:23;;;;;;;13.02;2.45;;;15.20;99.90;;;;;;5012996;28;20030;-50
2022/09/07 06:02:49;;;;;;;14.70;2.42;;;15.20;99.90;;;;;;5013070;28;20048;-48
2022/09/07 06:05:15;;;;;;;10.32;2.35;;;15.20;99.90;;;;;;5007321;28;20363;-52
2022/09/07 06:07:40;;;;;;;13.98;1.98;;;15.20;99.90;;;;;;5004255;28;20077;-45
2022/09/07 06:10:07;;;;;;;12.70;2.55;;;15.20;99.90;;;;;;5012799;28;20025;-46
2022/09/07 06:12:33;;;;;;;10.57;1.75;;;15.20;99.90;;;;;;5013182;28;20033;-52
2022/09/07 06:15:00;;;;;;;11.35;2.03;;;15.30;99.90;;;;;;5012690;28;20025;-51
2022/09/07 06:17:27;;;;;;;15.60;2.38;;;15.40;99.90;;;;;;5012897;28;20541;-44
2022/09/07 06:19:53;;;;;;;7.80;1.85;;;15.50;99.90;;;;;;5012952;28;20033;-44
2022/09/07 06:22:19;;;;;;;10.18;1.88;;;15.50;99.90;;;;;;5012742;28;20120;-45
2022/09/07 06:24:45;;;;;;;9.65;2.33;;;15.60;99.90;;;;;;5012934;28;20021;-49
2022/09/07 06:27:11;;;;;;;8.60;1.80;;;15.70;99.90;;;;;;4994841;28;20487;-47
2022/09/07 06:29:37;;;;;;;10.70;1.80;;;15.70;99.90;;;;;;5002880;28;20026;-50
2022/09/07 06:32:03;;;;;;;13.02;2.10;;;15.90;99.90;;;;;;4996813;28;20038;-45
2022/09/07 06:34:28;;;;;;;13.07;2.45;;;15.90;99.90;;;;;;4999600;28;20473;-50
2022/09/07 06:36:55;;;;;;;9.35;1.90;;;16.00;99.90;;;;;;5010076;28;20022;-48
2022/09/07 06:39:21;;;;;;;14.55;2.60;;;16.10;99.90;;;;;;5008767;28;20021;-45
2022/09/07 06:41:46;;;;;;;16.83;2.58;;;16.30;99.90;;;;;;5010429;28;20041;-49
2022/09/07 06:44:12;;;;;;;13.65;2.38;;;16.40;99.90;;;;;;5009884;28;20097;-49
2022/09/07 06:46:38;;;;;;;8.38;1.80;;;16.50;99.90;;;;;;5011141;28;20473;-48
2022/09/07 06:49:03;;;;;;;15.27;2.20;;;16.60;99.90;;;;;;5009547;28;20026;-51
2022/09/07 06:51:30;;;;;;;9.57;2.08;;;16.60;99.90;;;;;;5003524;28;20105;-45
2022/09/07 06:53:56;;;;;;;12.80;2.13;;;16.80;99.90;;;;;;5010265;28;20030;-46
2022/09/07 06:56:23;;;;;;;17.20;3.35;;;16.90;99.90;;;;;;4992550;28;20532;-48
2022/09/07 06:58:55;;;;;;;9.48;2.03;;;17.20;99.90;;;;;;5010947;28;20397;-45
2022/09/07 07:01:22;;;;;;;12.00;2.72;;;17.70;99.90;;;;;;5006703;28;20014;-51
2022/09/07 07:03:49;;;;;;;11.20;2.65;;;18.40;99.90;;;;;;4975036;28;20101;-47
2022/09/07 07:06:15;;;;;;;10.93;2.10;;;19.20;99.90;;;;;;4992352;28;20026;-48
2022/09/07 07:08:41;;;;;;;12.27;2.42;;;20.00;99.90;;;;;;5011172;28;20049;-44
2022/09/07 07:11:12;;;;;;;14.82;2.15;;;20.70;99.90;;;;;;5011843;28;20033;-47
2022/09/07 07:13:39;;;;;;;12.13;2.67;;;21.30;99.90;;;;;;5015532;28;20087;-46
2022/09/07 07:16:10;;;;;;;12.50;2.40;;;21.80;99.90;;;;;;5021629;28;20025;-48
2022/09/07 07:18:36;;;;;;;13.07;2.70;;;22.30;99.90;;;;;;5010943;28;20049;-51
2022/09/07 07:21:03;;;;;;;12.48;1.90;;;22.70;99.90;;;;;;5011634;28;20022;-52
2022/09/07 07:23:29;;;;;;;11.82;2.50;;;22.80;99.90;;;;;;5010600;28;20067;-47
2022/09/07 07:25:54;;;;;;;10.98;2.20;;;23.10;99.90;;;;;;4998569;28;20038;-47
2022/09/07 07:28:22;;;;;;;12.85;2.60;;;23.40;99.90;;;;;;4992748;28;20539;-47
2022/09/07 07:30:54;;;;;;;8.52;2.03;;;23.20;99.90;;;;;;5001207;28;20121;-48
2022/09/07 07:33:20;;;;;;;11.73;2.55;;;22.90;99.90;;;;;;5004169;28;20091;-49
2022/09/07 07:35:46;;;;;;;11.63;2.17;;;22.60;99.90;;;;;;5004411;28;20120;-50
2022/09/07 07:38:11;;;;;;;12.13;2.25;;;22.00;99.90;;;;;;4991916;28;20134;-45
2022/09/07 07:40:37;;;;;;;14.35;2.67;;;21.40;99.90;;;;;;5004853;28;20029;-49
2022/09/07 07:43:03;;;;;;;11.25;2.58;;;20.90;99.90;;;;;;4991685;28;20027;-46
2022/09/07 07:45:28;;;;;;;14.20;2.53;;;20.40;99.90;;;;;;4991455;28;20025;-46
2022/09/07 07:47:54;;;;;;;14.32;2.30;;;20.00;99.90;;;;;;4991698;28;20168;-54
2022/09/07 07:50:20;;;;;;;18.77;2.45;;;19.90;99.90;;;;;;4996339;28;20448;-53
2022/09/07 07:52:45;;;;;;;16.58;2.60;;;20.10;99.90;;;;;;4993294;28;20040;-48
2022/09/07 07:55:11;;;;;;;22.85;4.10;;;20.80;99.90;;;;;;4991672;28;20019;-51
2022/09/07 07:57:37;;;;;;;14.57;3.20;;;21.30;99.90;;;;;;5003547;28;20040;-43
2022/09/07 08:00:03;;;;;;;9.45;2.13;;;21.70;99.90;;;;;;5003334;28;20054;-50
2022/09/07 08:02:29;;;;;;;16.60;3.20;;;22.00;99.90;;;;;;4991584;28;20073;-50
2022/09/07 08:04:54;;;;;;;14.68;2.80;;;21.80;99.90;;;;;;4991463;28;20450;-46
2022/09/07 08:07:20;;;;;;;19.48;3.55;;;21.20;99.90;;;;;;4999430;28;20041;-46
2022/09/07 08:09:47;;;;;;;16.35;3.22;;;20.60;99.90;;;;;;5010808;28;20036;-49
2022/09/07 08:12:17;;;;;;;12.55;2.30;;;20.30;99.90;;;;;;5009819;28;20033;-49
2022/09/07 08:14:45;;;;;;;17.30;3.53;;;20.60;99.90;;;;;;5009023;28;20030;-48
2022/09/07 08:17:13;;;;;;;13.77;2.47;;;20.60;99.90;;;;;;5006659;28;20029;-48
2022/09/07 08:19:39;;;;;;;12.23;2.78;;;20.50;99.90;;;;;;5000831;28;20027;-53
2022/09/07 08:22:05;;;;;;;18.13;3.40;;;20.70;99.90;;;;;;4991123;28;20034;-43
2022/09/07 08:24:31;;;;;;;11.60;2.38;;;20.90;99.90;;;;;;5003739;28;20784;-46
2022/09/07 08:26:57;;;;;;;19.95;2.67;;;21.00;99.90;;;;;;5003518;28;20117;-47
2022/09/07 08:29:22;;;;;;;16.42;2.65;;;20.80;99.90;;;;;;4993172;28;20820;-47
2022/09/07 08:31:49;;;;;;;13.65;2.25;;;20.70;99.90;;;;;;4995077;28;20114;-50
2022/09/07 08:34:15;;;;;;;17.95;2.90;;;20.50;99.90;;;;;;4997071;28;20500;-50
2022/09/07 08:36:41;;;;;;;15.68;2.40;;;20.40;99.90;;;;;;5012786;28;20034;-50
2022/09/07 08:39:06;;;;;;;17.75;3.08;;;20.20;99.90;;;;;;5011034;28;20537;-50
2022/09/07 08:41:47;;;;;;;19.88;2.72;;;20.10;99.90;;;;;;5003888;28;20014;-48
2022/09/07 08:44:21;;;;;;;13.45;2.22;;;19.80;99.90;;;;;;5013977;28;20026;-48
2022/09/07 08:47:09;;;;;;;20.85;2.70;;;19.80;99.90;;;;;;5006339;28;20500;-47
2022/09/07 08:50:05;;;;;;;18.70;3.38;;;20.10;99.90;;;;;;5006641;28;20041;-45
2022/09/07 08:52:49;;;;;;;18.23;2.70;;;20.20;99.90;;;;;;5008463;28;20033;-48
2022/09/07 08:55:44;;;;;;;8.95;1.80;;;20.60;99.90;;;;;;5012970;28;20054;-49
2022/09/07 08:58:28;;;;;;;14.18;2.22;;;21.50;99.90;;;;;;5012771;28;20022;-45
2022/09/07 09:00:54;;;;;;;10.10;2.05;;;23.40;99.90;;;;;;5007787;28;20022;-47
2022/09/07 09:03:28;;;;;;;12.27;2.72;;;24.10;99.90;;;;;;5010056;28;20037;-46
2022/09/07 09:06:31;;;;;;;12.82;2.30;;;24.40;99.90;;;;;;5008522;28;20014;-43
2022/09/07 09:09:14;;;;;;;13.07;2.00;;;24.80;99.90;;;;;;5011107;28;20050;-45
2022/09/07 09:11:45;;;;;;;14.13;2.33;;;23.90;99.90;;;;;;5010618;28;20036;-48
2022/09/07 09:14:37;;;;;;;13.50;2.83;;;23.00;99.90;;;;;;5008858;28;20034;-46
2022/09/07 09:17:11;;;;;;;19.48;3.03;;;22.70;99.90;;;;;;5010081;28;20018;-47
2022/09/07 09:19:54;;;;;;;16.55;2.28;;;22.10;99.90;;;;;;5008884;28;20056;-47
2022/09/07 09:22:25;;;;;;;15.82;2.75;;;21.30;99.90;;;;;;5011202;28;20022;-46
2022/09/07 09:25:00;;;;;;;12.38;2.20;;;20.80;99.90;;;;;;5012394;28;20057;-45
2022/09/07 09:27:26;;;;;;;16.83;2.58;;;21.50;99.90;;;;;;5009440;28;20022;-46
2022/09/07 09:29:51;;;;;;;9.95;2.22;;;22.90;99.90;;;;;;5005098;28;20437;-44
2022/09/07 09:32:51;;;;;;;19.00;3.33;;;23.00;99.90;;;;;;5008472;28;20058;-47
2022/09/07 09:35:31;;;;;;;16.65;3.08;;;23.60;99.90;;;;;;4989419;28;20045;-44
2022/09/07 09:37:57;;;;;;;19.50;2.92;;;23.10;99.90;;;;;;5009923;28;20148;-50
2022/09/07 09:40:26;;;;;;;13.85;2.55;;;23.00;99.90;;;;;;5000863;28;20168;-48
2022/09/07 09:43:04;;;;;;;17.80;2.88;;;22.80;99.90;;;;;;5011472;28;20034;-47
2022/09/07 09:45:41;;;;;;;15.70;2.42;;;22.30;99.90;;;;;;4989881;28;20026;-50
2022/09/07 09:48:16;;;;;;;14.98;2.45;;;21.90;99.90;;;;;;5006656;28;20064;-45
2022/09/07 09:50:47;;;;;;;16.65;2.53;;;21.60;99.90;;;;;;5009075;28;20045;-46
2022/09/07 09:53:50;;;;;;;12.18;2.35;;;21.40;99.90;;;;;;5009347;28;20037;-50
2022/09/07 09:56:16;;;;;;;13.82;3.30;;;21.60;99.90;;;;;;5000541;28;20029;-46
2022/09/07 09:58:44;;;;;;;15.80;2.95;;;21.60;99.90;;;;;;5009597;28;20053;-46
2022/09/07 10:01:34;;;;;;;14.20;2.15;;;21.60;99.90;;;;;;5008913;28;20048;-49
2022/09/07 10:04:30;;;;;;;13.55;2.40;;;21.50;99.90;;;;;;5008451;28;20049;-47
2022/09/07 10:07:40;;;;;;;11.52;2.22;;;21.60;99.90;;;;;;4998543;28;20042;-46
2022/09/07 10:10:14;;;;;;;14.40;2.05;;;21.40;99.90;;;;;;5005052;28;20054;-49
2022/09/07 10:12:41;;;;;;;17.27;2.70;;;21.00;99.90;;;;;;5008864;28;20137;-47
2022/09/07 10:15:25;;;;;;;12.82;2.25;;;20.70;99.90;;;;;;5008864;28;20041;-48
2022/09/07 10:17:50;;;;;;;13.57;2.45;;;21.30;99.90;;;;;;5011139;28;20021;-47
2022/09/07 10:20:16;;;;;;;14.93;2.50;;;21.50;99.90;;;;;;5008557;28;20466;-46
2022/09/07 10:22:44;;;;;;;10.70;1.92;;;21.40;99.90;;;;;;5007084;28;20049;-47
2022/09/07 10:25:38;;;;;;;12.05;2.53;;;21.20;99.90;;;;;;5008478;28;20076;-48
2022/09/07 10:28:10;;;;;;;12.43;2.15;;;21.40;99.90;;;;;;5006416;28;20473;-50
2022/09/07 10:31:05;;;;;;;15.52;2.85;;;21.40;99.90;;;;;;5004968;28;20115;-49
2022/09/07 10:33:49;;;;;;;12.48;2.35;;;21.10;99.90;;;;;;4992728;28;20057;-49
2022/09/07 10:36:23;;;;;;;15.73;2.40;;;20.90;99.90;;;;;;5008552;28;20445;-48
2022/09/07 10:39:00;;;;;;;10.25;1.83;;;20.50;99.90;;;;;;5008543;28;20618;-46
2022/09/07 10:41:38;;;;;;;8.65;1.55;;;20.60;99.90;;;;;;5009610;28;20037;-47
2022/09/07 10:44:08;;;;;;;9.20;1.83;;;20.90;99.90;;;;;;5004253;28;20026;-48
2022/09/07 10:46:59;;;;;;;15.60;2.38;;;22.00;99.90;;;;;;5008066;28;20096;-50
2022/09/07 10:49:39;;;;;;;14.02;2.78;;;23.20;99.90;;;;;;5004625;28;20045;-53
2022/09/07 10:52:08;;;;;;;17.65;2.97;;;24.20;99.90;;;;;;5002176;28;20049;-48
2022/09/07 10:54:38;;;;;;;14.55;2.25;;;23.90;99.90;;;;;;5007753;28;20041;-53
2022/09/07 10:57:38;;;;;;;12.32;2.60;;;23.00;99.90;;;;;;5009457;28;20034;-48
2022/09/07 11:00:19;;;;;;;13.20;2.58;;;22.20;99.90;;;;;;5004047;28;20022;-48
2022/09/07 11:02:47;;;;;;;11.68;2.35;;;21.70;99.90;;;;;;5005346;28;20033;-51
2022/09/07 11:05:39;;;;;;;15.27;2.63;;;21.30;99.90;;;;;;5001213;28;20100;-49
2022/09/07 11:08:33;;;;;;;9.23;2.05;;;21.10;99.90;;;;;;5006012;28;20041;-45
2022/09/07 11:11:18;;;;;;;13.82;2.72;;;20.90;99.90;;;;;;5004779;28;20037;-46
2022/09/07 11:13:47;;;;;;;14.40;2.22;;;20.60;99.90;;;;;;5001717;28;20105;-51
2022/09/07 11:16:16;;;;;;;17.50;2.70;;;21.10;99.90;;;;;;5007665;28;20076;-50
2022/09/07 11:19:11;;;;;;;13.77;2.63;;;21.90;99.90;;;;;;5003293;28;20062;-51
2022/09/07 11:21:44;;;;;;;9.02;2.47;;;22.60;99.90;;;;;;5008107;28;20033;-49
2022/09/07 11:24:26;;;;;;;17.27;2.38;;;22.50;99.90;;;;;;5008312;28;20108;-45
2022/09/07 11:26:59;;;;;;;9.98;1.98;;;22.60;99.90;;;;;;5009071;28;20508;-45
2022/09/07 11:29:35;;;;;;;10.85;2.17;;;22.80;99.90;;;;;;5005628;28;20029;-46
2022/09/07 11:32:11;;;;;;;9.48;1.88;;;23.00;99.90;;;;;;4990578;28;20026;-47
2022/09/07 11:35:00;;;;;;;14.98;1.77;;;22.90;99.90;;;;;;5008698;28;20045;-51
2022/09/07 11:37:29;;;;;;;13.00;2.40;;;23.10;99.90;;;;;;5003243;28;20030;-47
2022/09/07 11:39:55;;;;;;;11.05;2.22;;;23.20;99.90;;;;;;5006785;28;20029;-50
2022/09/07 11:43:01;;;;;;;10.18;1.92;;;23.60;99.90;;;;;;5004763;28;21654;-47
2022/09/07 11:45:36;;;;;;;7.90;1.85;;;23.60;99.90;;;;;;4994971;28;20042;-49
2022/09/07 11:48:12;;;;;;;15.45;2.47;;;23.10;99.90;;;;;;5007004;28;20030;-49
2022/09/07 11:50:45;;;;;;;11.95;1.90;;;22.90;99.90;;;;;;5007567;28;20026;-53
2022/09/07 11:53:31;;;;;;;10.68;1.92;;;22.70;99.90;;;;;;5006341;28;20046;-50
2022/09/07 11:56:02;;;;;;;10.73;2.25;;;22.70;99.90;;;;;;4989000;28;20492;-54
2022/09/07 11:58:51;;;;;;;13.98;2.25;;;23.00;99.90;;;;;;4990883;28;20031;-56
2022/09/07 12:01:49;;;;;;;12.77;2.33;;;22.70;99.90;;;;;;4998002;28;20025;-53
2022/09/07 12:04:42;;;;;;;11.40;2.10;;;22.50;99.90;;;;;;5008832;28;20022;-56
2022/09/07 12:07:39;;;;;;;13.90;2.25;;;22.50;99.90;;;;;;5007326;28;20032;-53
2022/09/07 12:10:32;;;;;;;12.20;2.10;;;22.80;99.90;;;;;;5007351;28;20061;-51
2022/09/07 12:13:29;;;;;;;7.10;1.70;;;23.00;99.90;;;;;;5005532;28;20263;-53
2022/09/07 12:16:01;;;;;;;6.32;1.55;;;23.00;99.90;;;;;;5001257;28;20536;-53
2022/09/07 12:19:11;;;;;;;13.68;2.22;;;22.90;99.90;;;;;;4991079;28;20030;-52
2022/09/07 12:21:49;;;;;;;7.40;2.10;;;22.60;99.90;;;;;;4984360;28;20194;-49
2022/09/07 12:24:36;;;;;;;8.15;2.25;;;21.90;99.90;;;;;;4997647;28;20080;-53
2022/09/07 12:27:24;;;;;;;13.77;2.35;;;21.60;99.90;;;;;;5006208;28;20057;-56
2022/09/07 12:29:56;;;;;;;11.45;2.50;;;21.40;99.90;;;;;;4991871;28;20045;-58
2022/09/07 12:32:47;;;;;;;11.95;2.30;;;21.40;99.90;;;;;;5006209;28;20022;-52
2022/09/07 12:35:30;;;;;;;11.43;1.85;;;21.40;99.90;;;;;;5005804;28;20034;-49
2022/09/07 12:38:00;;;;;;;10.88;2.25;;;21.20;99.90;;;;;;5003384;28;20026;-56
2022/09/07 12:40:35;;;;;;;10.65;1.92;;;21.40;99.90;;;;;;5008257;28;20034;-51
2022/09/07 12:43:12;;;;;;;11.85;2.50;;;21.70;99.90;;;;;;5008339;28;20667;-46
2022/09/07 12:45:38;;;;;;;12.07;2.20;;;22.10;99.90;;;;;;5001927;28;20027;-47
2022/09/07 12:48:22;;;;;;;13.13;1.98;;;22.30;99.90;;;;;;5007876;28;20713;-51
2022/09/07 12:51:11;;;;;;;9.77;1.83;;;22.30;99.90;;;;;;5003949;28;20026;-49
2022/09/07 12:53:48;;;;;;;11.02;2.10;;;22.10;99.90;;;;;;4996357;28;20073;-44
2022/09/07 12:56:23;;;;;;;14.45;2.30;;;22.10;99.90;;;;;;4999179;28;20027;-50
2022/09/07 12:58:51;;;;;;;14.70;2.15;;;22.00;99.90;;;;;;4988893;28;20516;-49
2022/09/07 13:01:42;;;;;;;9.13;2.30;;;22.00;99.90;;;;;;4990250;28;20054;-49
2022/09/07 13:04:36;;;;;;;14.00;2.22;;;21.90;99.90;;;;;;5005347;28;20097;-48
2022/09/07 13:07:21;;;;;;;12.63;2.33;;;22.00;99.90;;;;;;4995811;28;20029;-52